createdAt,value
2019-03-18T00:00:23.356Z,0.50
2019-03-18T00:02:51.800Z,0.73
2019-03-18T00:05:20.229Z,3.00
2019-03-18T00:07:48.648Z,2.53
2019-03-18T00:10:17.094Z,3.30
2019-03-18T00:12:45.489Z,0.47
2019-03-18T00:15:13.920Z,1.67
2019-03-18T00:17:42.332Z,1.23
2019-03-18T00:20:11.307Z,1.17
2019-03-18T00:22:39.742Z,1.40
2019-03-18T00:25:11.229Z,2.13
2019-03-18T00:27:39.628Z,1.80
2019-03-18T00:30:11.106Z,2.53
2019-03-18T00:32:39.523Z,1.03
2019-03-18T00:35:08.097Z,0.97
2019-03-18T00:37:36.526Z,1.37
2019-03-18T00:40:08.371Z,0.67
2019-03-18T00:42:36.854Z,1.90
2019-03-18T00:45:14.596Z,0.67
2019-03-18T00:47:37.387Z,0.93
2019-03-18T00:50:14.299Z,0.90
2019-03-18T00:52:42.808Z,1.10
2019-03-18T00:55:11.355Z,0.73
2019-03-18T00:57:39.853Z,0.60
2019-03-18T01:00:13.238Z,0.97
2019-03-18T01:02:41.706Z,1.80
2019-03-18T01:05:10.463Z,1.80
2019-03-18T01:07:38.952Z,1.57
2019-03-18T01:10:10.480Z,0.80
2019-03-18T01:12:38.896Z,1.70
2019-03-18T01:15:09.268Z,1.07
2019-03-18T01:17:37.754Z,0.50
2019-03-18T01:20:08.125Z,0.87
2019-03-18T01:22:36.596Z,2.07
2019-03-18T01:25:06.782Z,1.17
2019-03-18T01:27:35.224Z,1.03
2019-03-18T01:30:04.944Z,0.60
2019-03-18T01:32:33.428Z,1.53
2019-03-18T01:35:01.831Z,1.10
2019-03-18T01:37:30.278Z,1.27
2019-03-18T01:39:58.679Z,0.37
2019-03-18T01:42:27.117Z,0.93
2019-03-18T01:44:55.534Z,1.50
2019-03-18T01:47:23.995Z,1.03
2019-03-18T01:49:52.410Z,0.87
2019-03-18T01:52:20.818Z,1.60
2019-03-18T01:54:49.244Z,1.33
2019-03-18T01:57:17.648Z,1.30
2019-03-18T01:59:46.096Z,0.97
2019-03-18T02:02:14.534Z,1.03
2019-03-18T02:04:42.970Z,1.17
2019-03-18T02:07:11.360Z,0.60
2019-03-18T02:09:39.828Z,0.77
2019-03-18T02:12:08.230Z,0.67
2019-03-18T02:14:36.668Z,0.93
2019-03-18T02:17:05.066Z,0.67
2019-03-18T02:19:33.516Z,0.70
2019-03-18T02:22:01.932Z,0.57
2019-03-18T02:24:30.335Z,0.77
2019-03-18T02:26:58.781Z,1.10
2019-03-18T02:29:27.184Z,0.53
2019-03-18T02:31:55.636Z,0.97
2019-03-18T02:34:24.243Z,2.13
2019-03-18T02:36:52.665Z,1.57
2019-03-18T02:39:21.076Z,0.50
2019-03-18T02:41:49.508Z,0.97
2019-03-18T02:44:18.029Z,0.40
2019-03-18T02:46:46.434Z,0.30
2019-03-18T02:49:14.864Z,1.00
2019-03-18T02:51:43.293Z,1.13
2019-03-18T02:54:11.741Z,0.97
2019-03-18T02:56:40.198Z,0.93
2019-03-18T02:59:08.631Z,1.17
2019-03-18T03:01:37.083Z,1.03
2019-03-18T03:04:05.502Z,0.50
2019-03-18T03:06:33.929Z,0.87
2019-03-18T03:09:02.418Z,0.67
2019-03-18T03:11:34.074Z,0.53
2019-03-18T03:14:01.027Z,0.53
2019-03-18T03:16:29.433Z,1.50
2019-03-18T03:18:57.871Z,0.43
2019-03-18T03:21:26.264Z,0.40
2019-03-18T03:23:54.679Z,0.63
2019-03-18T03:26:23.130Z,0.30
2019-03-18T03:28:51.569Z,0.50
2019-03-18T03:31:19.995Z,0.73
2019-03-18T03:33:48.444Z,0.33
2019-03-18T03:36:16.847Z,0.80
2019-03-18T03:38:45.269Z,1.53
2019-03-18T03:41:17.748Z,1.83
2019-03-18T03:43:43.903Z,0.37
2019-03-18T03:46:12.290Z,0.67
2019-03-18T03:48:40.751Z,0.80
2019-03-18T03:51:09.166Z,0.40
2019-03-18T03:53:37.557Z,0.80
2019-03-18T03:56:05.995Z,1.40
2019-03-18T03:58:34.580Z,0.60
2019-03-18T04:01:02.980Z,0.60
2019-03-18T04:03:38.216Z,0.40
2019-03-18T04:06:01.580Z,1.67
2019-03-18T04:08:30.069Z,0.30
2019-03-18T04:10:58.550Z,1.47
2019-03-18T04:13:26.981Z,1.40
2019-03-18T04:15:55.395Z,0.60
2019-03-18T04:18:23.836Z,0.80
2019-03-18T04:20:52.361Z,0.47
2019-03-18T04:23:20.804Z,0.40
2019-03-18T04:25:49.313Z,1.70
2019-03-18T04:28:17.747Z,0.87
2019-03-18T04:30:46.143Z,0.80
2019-03-18T04:33:14.570Z,0.57
2019-03-18T04:35:42.983Z,0.97
2019-03-18T04:38:11.420Z,0.70
2019-03-18T04:40:39.859Z,1.23
2019-03-18T04:43:08.309Z,0.80
2019-03-18T04:45:36.723Z,0.80
2019-03-18T04:48:05.137Z,0.43
2019-03-18T04:50:33.570Z,0.50
2019-03-18T04:53:01.991Z,0.40
2019-03-18T04:55:30.431Z,1.70
2019-03-18T04:57:58.852Z,1.03
2019-03-18T05:00:27.301Z,0.20
2019-03-18T05:02:55.719Z,0.93
2019-03-18T05:05:24.190Z,1.27
2019-03-18T05:07:52.625Z,0.40
2019-03-18T05:10:21.033Z,0.50
2019-03-18T05:12:49.445Z,0.93
2019-03-18T05:15:17.889Z,0.93
2019-03-18T05:17:46.314Z,0.90
2019-03-18T05:20:14.727Z,0.40
2019-03-18T05:22:43.163Z,0.40
2019-03-18T05:25:11.574Z,0.50
2019-03-18T05:27:40.011Z,0.70
2019-03-18T05:30:13.226Z,0.30
2019-03-18T05:32:41.650Z,1.33
2019-03-18T05:35:10.273Z,1.03
2019-03-18T05:37:38.681Z,1.00
2019-03-18T05:40:08.253Z,0.83
2019-03-18T05:42:36.649Z,0.73
2019-03-18T05:45:07.805Z,0.87
2019-03-18T05:47:39.687Z,0.57
2019-03-18T05:50:08.603Z,0.60
2019-03-18T05:52:37.025Z,0.73
2019-03-18T05:55:06.583Z,0.83
2019-03-18T05:57:35.028Z,0.20
2019-03-18T06:00:05.101Z,0.47
2019-03-18T06:02:33.525Z,0.60
2019-03-18T06:05:01.970Z,0.90
2019-03-18T06:07:30.410Z,0.57
2019-03-18T06:09:58.863Z,0.60
2019-03-18T06:12:27.283Z,1.33
2019-03-18T06:14:55.689Z,0.20
2019-03-18T06:17:24.216Z,0.60
2019-03-18T06:19:52.658Z,0.30
2019-03-18T06:22:21.112Z,0.53
2019-03-18T06:24:49.563Z,1.53
2019-03-18T06:27:17.973Z,2.10
2019-03-18T06:29:46.414Z,2.57
2019-03-18T06:32:14.864Z,0.87
2019-03-18T06:34:43.272Z,0.63
2019-03-18T06:37:11.704Z,0.70
2019-03-18T06:39:40.112Z,1.03
2019-03-18T06:42:08.568Z,0.33
2019-03-18T06:44:36.980Z,0.43
2019-03-18T06:47:05.389Z,0.70
2019-03-18T06:49:33.839Z,0.97
2019-03-18T06:52:02.282Z,0.60
2019-03-18T06:54:30.704Z,1.03
2019-03-18T06:56:59.132Z,0.93
2019-03-18T06:59:27.578Z,0.70
2019-03-18T07:01:55.988Z,0.43
2019-03-18T07:04:24.522Z,1.00
2019-03-18T07:06:52.942Z,0.40
2019-03-18T07:09:21.346Z,0.70
2019-03-18T07:11:49.786Z,0.97
2019-03-18T07:14:18.193Z,1.20
2019-03-18T07:16:46.625Z,0.60
2019-03-18T07:19:15.049Z,0.73
2019-03-18T07:21:43.493Z,0.93
2019-03-18T07:24:11.893Z,1.17
2019-03-18T07:26:40.320Z,1.40
2019-03-18T07:29:08.751Z,1.30
2019-03-18T07:31:37.200Z,1.00
2019-03-18T07:34:05.682Z,0.20
2019-03-18T07:36:34.093Z,0.50
2019-03-18T07:39:02.546Z,0.43
2019-03-18T07:41:30.952Z,0.80
2019-03-18T07:43:59.454Z,1.17
2019-03-18T07:46:27.868Z,0.50
2019-03-18T07:48:56.292Z,0.70
2019-03-18T07:51:24.696Z,0.88
2019-03-18T07:53:53.127Z,1.03
2019-03-18T07:56:21.601Z,2.02
2019-03-18T07:58:50.076Z,0.55
2019-03-18T08:01:18.523Z,0.53
2019-03-18T08:03:46.944Z,1.33
2019-03-18T08:06:15.362Z,0.73
2019-03-18T08:08:43.809Z,0.93
2019-03-18T08:11:12.230Z,1.37
2019-03-18T08:13:40.682Z,1.90
2019-03-18T08:16:09.084Z,1.20
2019-03-18T08:18:43.213Z,0.87
2019-03-18T08:21:07.667Z,0.55
2019-03-18T08:23:36.088Z,1.20
2019-03-18T08:26:04.539Z,1.32
2019-03-18T08:28:32.953Z,0.80
2019-03-18T08:31:01.392Z,0.50
2019-03-18T08:33:29.810Z,0.67
2019-03-18T08:35:58.234Z,0.57
2019-03-18T08:38:26.664Z,0.88
2019-03-18T08:40:55.283Z,0.50
2019-03-18T08:43:23.760Z,0.37
2019-03-18T08:45:52.255Z,0.93
2019-03-18T08:48:20.676Z,0.80
2019-03-18T08:50:49.086Z,0.95
2019-03-18T08:53:17.522Z,0.33
2019-03-18T08:55:46.000Z,0.70
2019-03-18T08:58:14.427Z,0.90
2019-03-18T09:00:42.863Z,1.12
2019-03-18T09:03:11.298Z,0.80
2019-03-18T09:05:39.806Z,0.72
2019-03-18T09:08:08.254Z,1.30
2019-03-18T09:10:36.666Z,0.45
2019-03-18T09:13:05.147Z,0.30
2019-03-18T09:15:33.577Z,1.67
2019-03-18T09:18:01.988Z,0.72
2019-03-18T09:20:30.422Z,0.85
2019-03-18T09:23:01.370Z,0.45
2019-03-18T09:25:29.003Z,0.63
2019-03-18T09:27:57.438Z,1.07
2019-03-18T09:30:25.921Z,0.93
2019-03-18T09:32:54.342Z,1.20
2019-03-18T09:35:22.774Z,0.37
2019-03-18T09:37:51.201Z,1.25
2019-03-18T09:40:19.713Z,0.37
2019-03-18T09:42:48.130Z,0.45
2019-03-18T09:45:17.699Z,1.65
2019-03-18T09:47:46.173Z,0.62
2019-03-18T09:50:15.204Z,1.40
2019-03-18T09:52:43.664Z,1.32
2019-03-18T09:55:12.159Z,0.60
2019-03-18T09:57:40.563Z,1.00
2019-03-18T10:00:14.124Z,0.90
2019-03-18T10:02:42.545Z,0.85
2019-03-18T10:05:11.112Z,1.15
2019-03-18T10:07:39.582Z,0.90
2019-03-18T10:10:10.105Z,0.68
2019-03-18T10:12:38.558Z,0.68
2019-03-18T10:15:12.771Z,0.80
2019-03-18T10:17:41.219Z,0.80
2019-03-18T10:20:10.204Z,1.37
2019-03-18T10:22:38.642Z,1.77
2019-03-18T10:25:08.218Z,1.10
2019-03-18T10:27:37.836Z,2.07
2019-03-18T10:30:15.110Z,0.68
2019-03-18T10:32:43.782Z,0.95
2019-03-18T10:35:12.452Z,0.30
2019-03-18T10:37:40.877Z,0.55
2019-03-18T10:40:13.395Z,0.93
2019-03-18T10:42:41.993Z,0.40
2019-03-18T10:45:14.262Z,1.25
2019-03-18T10:47:42.697Z,0.82
2019-03-18T10:50:18.228Z,0.80
2019-03-18T10:52:46.669Z,0.47
2019-03-18T10:55:15.182Z,0.55
2019-03-18T10:57:43.599Z,1.90
2019-03-18T11:00:16.405Z,1.32
2019-03-18T11:02:45.552Z,0.93
2019-03-18T11:05:14.828Z,0.70
2019-03-18T11:07:43.410Z,1.00
2019-03-18T11:10:13.595Z,1.07
2019-03-18T11:12:42.026Z,0.75
2019-03-18T11:15:17.219Z,0.47
2019-03-18T11:17:45.674Z,0.93
2019-03-18T11:20:15.521Z,1.40
2019-03-18T11:22:44.353Z,2.22
2019-03-18T11:25:14.970Z,1.50
2019-03-18T11:27:43.396Z,2.02
2019-03-18T11:30:16.561Z,1.32
2019-03-18T11:32:44.965Z,2.75
2019-03-18T11:35:13.519Z,0.85
2019-03-18T11:37:42.327Z,0.57
2019-03-18T11:40:13.779Z,0.60
2019-03-18T11:42:42.193Z,0.80
2019-03-18T11:45:12.859Z,0.40
2019-03-18T11:47:41.282Z,0.90
2019-03-18T11:50:12.737Z,0.50
2019-03-18T11:52:41.292Z,0.57
2019-03-18T11:55:17.415Z,1.50
2019-03-18T11:57:45.883Z,0.70
2019-03-18T12:00:22.270Z,1.10
2019-03-18T12:02:50.718Z,0.60
2019-03-18T12:05:28.951Z,0.62
2019-03-18T12:07:57.396Z,1.67
2019-03-18T12:10:26.261Z,1.70
2019-03-18T12:12:54.914Z,1.98
2019-03-18T12:15:27.353Z,1.10
2019-03-18T12:17:54.788Z,0.95
2019-03-18T12:20:25.265Z,0.50
2019-03-18T12:22:53.448Z,2.92
2019-03-18T12:25:21.840Z,1.05
2019-03-18T12:27:50.359Z,0.72
2019-03-18T12:30:23.329Z,0.40
2019-03-18T12:32:51.862Z,1.00
2019-03-18T12:35:20.517Z,0.75
2019-03-18T12:37:49.172Z,2.75
2019-03-18T12:40:18.277Z,0.98
2019-03-18T12:42:46.752Z,0.60
2019-03-18T12:45:16.429Z,0.98
2019-03-18T12:47:44.882Z,3.70
2019-03-18T12:50:16.328Z,0.65
2019-03-18T12:52:44.829Z,0.53
2019-03-18T12:55:13.404Z,1.37
2019-03-18T12:57:41.882Z,2.05
2019-03-18T13:00:21.428Z,1.70
2019-03-18T13:02:50.080Z,0.50
2019-03-18T13:05:18.894Z,0.40
2019-03-18T13:07:47.497Z,1.07
2019-03-18T13:10:21.421Z,1.17
2019-03-18T13:12:50.429Z,2.42
2019-03-18T13:15:20.118Z,0.53
2019-03-18T13:17:48.543Z,0.70
2019-03-18T13:20:18.077Z,0.80
2019-03-18T13:22:46.517Z,0.72
2019-03-18T13:25:15.067Z,1.10
2019-03-18T13:27:43.511Z,1.20
2019-03-18T13:30:19.896Z,0.98
2019-03-18T13:32:48.326Z,0.65
2019-03-18T13:35:17.095Z,1.10
2019-03-18T13:37:45.617Z,0.72
2019-03-18T13:40:17.893Z,2.42
2019-03-18T13:42:46.478Z,1.25
2019-03-18T13:45:21.834Z,0.50
2019-03-18T13:47:50.257Z,0.80
2019-03-18T13:50:23.200Z,0.53
2019-03-18T13:52:51.643Z,0.60
2019-03-18T13:55:20.271Z,1.00
2019-03-18T13:57:48.716Z,0.98
2019-03-18T14:00:19.260Z,3.12
2019-03-18T14:02:47.864Z,4.03
2019-03-18T14:05:16.345Z,5.42
2019-03-18T14:07:44.963Z,8.75
2019-03-18T14:10:18.116Z,23.50
2019-03-18T14:12:46.521Z,19.57
2019-03-18T14:15:25.443Z,20.10
2019-03-18T14:17:53.929Z,17.42
2019-03-18T14:20:23.893Z,20.08
2019-03-18T14:22:52.347Z,23.62
2019-03-18T14:25:20.753Z,18.20
2019-03-18T14:27:49.271Z,23.20
2019-03-18T14:30:22.388Z,16.75
2019-03-18T14:32:50.816Z,21.35
2019-03-18T14:35:21.255Z,19.42
2019-03-18T14:37:49.395Z,19.23
2019-03-18T14:40:22.068Z,20.68
2019-03-18T14:42:50.583Z,22.55
2019-03-18T14:45:20.355Z,16.80
2019-03-18T14:47:48.775Z,21.40
2019-03-18T14:50:18.032Z,16.55
2019-03-18T14:52:46.739Z,18.17
2019-03-18T14:55:18.537Z,20.05
2019-03-18T14:57:46.980Z,16.10
2019-03-18T15:00:17.727Z,15.50
2019-03-18T15:02:46.161Z,12.67
2019-03-18T15:05:15.707Z,15.50
2019-03-18T15:07:44.125Z,15.50
2019-03-18T15:10:20.843Z,11.77
2019-03-18T15:12:49.244Z,18.05
2019-03-18T15:15:19.551Z,16.52
2019-03-18T15:17:48.109Z,12.93
2019-03-18T15:20:18.246Z,15.40
2019-03-18T15:22:46.706Z,15.38
2019-03-18T15:25:23.918Z,15.53
2019-03-18T15:27:52.368Z,12.70
2019-03-18T15:30:21.327Z,14.43
2019-03-18T15:32:49.777Z,14.60
2019-03-18T15:35:18.579Z,11.77
2019-03-18T15:37:47.157Z,17.67
2019-03-18T15:40:20.682Z,13.17
2019-03-18T15:42:49.120Z,13.93
2019-03-18T15:45:21.287Z,14.50
2019-03-18T15:47:49.858Z,12.77
2019-03-18T15:50:20.394Z,13.70
2019-03-18T15:52:48.831Z,15.33
2019-03-18T15:55:17.253Z,13.57
2019-03-18T15:57:45.688Z,15.37
2019-03-18T16:00:28.913Z,10.87
2019-03-18T16:02:57.409Z,10.43
2019-03-18T16:05:25.850Z,13.13
2019-03-18T16:07:54.338Z,13.38
2019-03-18T16:10:22.903Z,10.23
2019-03-18T16:12:51.369Z,13.90
2019-03-18T16:15:19.896Z,10.47
2019-03-18T16:17:48.330Z,11.97
2019-03-18T16:20:22.152Z,11.43
2019-03-18T16:22:50.598Z,11.93
2019-03-18T16:25:19.086Z,9.07
2019-03-18T16:27:47.520Z,10.98
2019-03-18T16:30:22.618Z,9.43
2019-03-18T16:32:51.267Z,8.43
2019-03-18T16:35:19.701Z,9.73
2019-03-18T16:37:49.002Z,9.07
2019-03-18T16:40:21.516Z,11.77
2019-03-18T16:42:49.945Z,9.27
2019-03-18T16:45:19.528Z,8.50
2019-03-18T16:47:47.998Z,8.60
2019-03-18T16:50:30.483Z,8.03
2019-03-18T16:52:59.032Z,7.77
2019-03-18T16:55:27.481Z,9.30
2019-03-18T16:57:55.924Z,10.17
2019-03-18T17:00:25.686Z,8.27
2019-03-18T17:02:54.100Z,8.57
2019-03-18T17:05:22.560Z,6.77
2019-03-18T17:07:53.952Z,8.97
2019-03-18T17:10:21.155Z,7.70
2019-03-18T17:12:49.584Z,8.33
2019-03-18T17:15:22.604Z,8.73
2019-03-18T17:17:51.045Z,8.47
2019-03-18T17:20:19.462Z,6.80
2019-03-18T17:22:49.807Z,7.67
2019-03-18T17:25:23.029Z,6.60
2019-03-18T17:27:51.458Z,6.17
2019-03-18T17:30:20.631Z,6.73
2019-03-18T17:32:49.314Z,7.53
2019-03-18T17:35:18.637Z,7.77
2019-03-18T17:37:47.066Z,7.03
2019-03-18T17:40:16.603Z,7.40
2019-03-18T17:42:45.027Z,6.90
2019-03-18T17:45:18.587Z,4.50
2019-03-18T17:47:47.006Z,7.20
2019-03-18T17:50:17.944Z,6.13
2019-03-18T17:52:46.402Z,6.23
2019-03-18T17:55:14.818Z,4.37
2019-03-18T17:57:43.264Z,4.97
2019-03-18T18:00:16.015Z,5.13
2019-03-18T18:02:44.510Z,6.63
2019-03-18T18:05:13.009Z,6.00
2019-03-18T18:07:41.457Z,5.97
2019-03-18T18:10:11.291Z,5.13
2019-03-18T18:12:39.724Z,5.10
2019-03-18T18:15:10.117Z,4.90
2019-03-18T18:17:38.599Z,5.03
2019-03-18T18:20:12.185Z,5.00
2019-03-18T18:22:41.135Z,4.40
2019-03-18T18:25:11.161Z,5.70
2019-03-18T18:27:39.544Z,5.93
2019-03-18T18:30:14.380Z,3.80
2019-03-18T18:32:42.866Z,5.27
2019-03-18T18:35:12.116Z,5.27
2019-03-18T18:37:40.540Z,4.23
2019-03-18T18:40:14.560Z,4.60
2019-03-18T18:42:42.991Z,4.50
2019-03-18T18:45:12.724Z,5.33
2019-03-18T18:47:41.236Z,4.13
2019-03-18T18:50:11.910Z,5.57
2019-03-18T18:52:40.346Z,4.20
2019-03-18T18:55:12.694Z,3.67
2019-03-18T18:57:41.096Z,4.53
2019-03-18T19:00:21.360Z,3.83
2019-03-18T19:02:49.862Z,3.87
2019-03-18T19:05:19.034Z,3.50
2019-03-18T19:07:47.473Z,4.10
2019-03-18T19:10:20.980Z,4.70
2019-03-18T19:12:49.750Z,4.13
2019-03-18T19:15:25.924Z,3.97
2019-03-18T19:17:54.362Z,3.60
2019-03-18T19:20:22.778Z,4.37
2019-03-18T19:22:51.214Z,2.77
2019-03-18T19:25:19.902Z,3.73
2019-03-18T19:27:48.341Z,2.17
2019-03-18T19:30:21.157Z,3.20
2019-03-18T19:32:49.660Z,3.30
2019-03-18T19:35:18.139Z,2.77
2019-03-18T19:37:46.579Z,3.53
2019-03-18T19:40:25.093Z,3.80
2019-03-18T19:42:53.516Z,2.70
2019-03-18T19:45:21.925Z,2.97
2019-03-18T19:47:53.041Z,2.03
2019-03-18T19:50:31.979Z,3.63
2019-03-18T19:53:00.417Z,2.63
2019-03-18T19:55:28.830Z,3.53
2019-03-18T19:57:57.292Z,3.60
2019-03-18T20:00:27.921Z,3.50
2019-03-18T20:02:56.336Z,2.67
2019-03-18T20:05:24.749Z,2.73
2019-03-18T20:07:53.189Z,3.47
2019-03-18T20:10:22.436Z,4.57
2019-03-18T20:12:50.944Z,2.80
2019-03-18T20:15:20.092Z,3.00
2019-03-18T20:17:48.701Z,4.07
2019-03-18T20:20:21.860Z,2.73
2019-03-18T20:22:50.258Z,2.47
2019-03-18T20:25:18.800Z,2.53
2019-03-18T20:27:47.188Z,2.10
2019-03-18T20:30:17.157Z,3.50
2019-03-18T20:32:45.598Z,2.60
2019-03-18T20:35:15.885Z,2.17
2019-03-18T20:37:44.350Z,2.60
2019-03-18T20:40:14.488Z,2.10
2019-03-18T20:42:42.992Z,2.93
2019-03-18T20:45:16.476Z,3.10
2019-03-18T20:47:44.883Z,3.30
2019-03-18T20:50:15.471Z,3.10
2019-03-18T20:52:43.900Z,2.87
2019-03-18T20:55:13.262Z,2.53
2019-03-18T20:57:41.704Z,2.23
2019-03-18T21:00:18.215Z,2.70
2019-03-18T21:02:46.640Z,2.07
2019-03-18T21:05:15.208Z,2.23
2019-03-18T21:07:43.646Z,2.23
2019-03-18T21:10:16.514Z,2.50
2019-03-18T21:12:45.127Z,2.20
2019-03-18T21:15:17.499Z,3.23
2019-03-18T21:17:46.260Z,2.10
2019-03-18T21:20:17.716Z,2.03
2019-03-18T21:22:46.182Z,2.80
2019-03-18T21:25:14.717Z,1.47
2019-03-18T21:27:43.308Z,1.93
2019-03-18T21:30:14.191Z,2.23
2019-03-18T21:32:42.610Z,0.80
2019-03-18T21:35:11.296Z,2.37
2019-03-18T21:37:39.806Z,2.40
2019-03-18T21:40:13.815Z,1.70
2019-03-18T21:42:42.265Z,2.13
2019-03-18T21:45:17.934Z,2.20
2019-03-18T21:47:46.400Z,2.07
2019-03-18T21:50:16.129Z,1.50
2019-03-18T21:52:44.617Z,1.80
2019-03-18T21:55:13.953Z,2.07
2019-03-18T21:57:42.469Z,1.50
2019-03-18T22:00:19.734Z,2.73
2019-03-18T22:02:48.249Z,1.90
2019-03-18T22:05:16.712Z,1.43
2019-03-18T22:07:46.170Z,1.53
2019-03-18T22:10:18.975Z,2.10
2019-03-18T22:12:47.759Z,1.23
2019-03-18T22:15:16.921Z,1.70
2019-03-18T22:17:45.354Z,2.77
2019-03-18T22:20:18.809Z,2.67
2019-03-18T22:22:47.217Z,2.13
2019-03-18T22:25:16.133Z,2.33
2019-03-18T22:27:44.709Z,1.13
2019-03-18T22:30:17.290Z,1.43
2019-03-18T22:32:45.710Z,1.90
2019-03-18T22:35:14.306Z,1.53
2019-03-18T22:37:42.738Z,2.67
2019-03-18T22:40:15.181Z,1.93
2019-03-18T22:42:43.957Z,1.57
2019-03-18T22:45:16.421Z,1.90
2019-03-18T22:47:44.849Z,2.27
2019-03-18T22:50:14.413Z,0.97
2019-03-18T22:52:42.848Z,1.10
2019-03-18T22:55:12.395Z,1.63
2019-03-18T22:57:41.333Z,1.30
2019-03-18T23:00:25.877Z,1.67
2019-03-18T23:02:54.587Z,1.47
2019-03-18T23:05:23.350Z,1.83
2019-03-18T23:07:51.791Z,1.70
2019-03-18T23:10:20.289Z,2.50
2019-03-18T23:12:48.695Z,1.13
2019-03-18T23:15:17.173Z,2.87
2019-03-18T23:17:45.583Z,1.70
2019-03-18T23:20:14.153Z,1.27
2019-03-18T23:22:42.600Z,1.80
2019-03-18T23:25:11.016Z,1.63
2019-03-18T23:27:39.459Z,2.43
2019-03-18T23:30:14.627Z,1.10
2019-03-18T23:32:43.053Z,1.57
2019-03-18T23:35:12.042Z,1.33
2019-03-18T23:37:40.484Z,1.90
2019-03-18T23:40:11.284Z,1.37
2019-03-18T23:42:39.757Z,1.47
2019-03-18T23:45:09.623Z,1.27
2019-03-18T23:47:38.041Z,1.43
2019-03-18T23:50:09.494Z,1.43
2019-03-18T23:52:37.911Z,3.00
2019-03-18T23:55:18.391Z,1.10
2019-03-18T23:57:38.126Z,1.60
